Ominato Air Base, Japan

12:06 PM JST on September 16, 2014 (GMT +0900)
Hakodate | Change Station
CLOSE
Current Station
Airport
Location: Hakodate Airport,
Elevation: 118 ft
Nearby Weather Stations

Elev 118 ft 41.77 °N, 140.82 °E | Updated 6 minutes ago

Partly Cloudy
Partly Cloudy
73 °F
Feels Like 73 °F
N
16
Wind Variable Wind from West

Today
High -- | Low -- °F
--% Chance of Precip.
Yesterday
High -- | Low -- °F
Precip. -- in
5:16 AM 5:44 PM
Waning Gibbous, 50% visible
Pressure 29.77 in
Visibility 6.2 miles
Clouds Few 3000 ft
Dew Point 55 °F
Humidity 53%
Rainfall 0.00 in
Snow Depth Not available.
UV 6 out of 12
Pollen Not available.
Air Quality Not available.
Flu Activity Not available.
METAR RJCH 160300Z 28014KT 230V300 9999 FEW030 23/13 Q1008

More Conditions Fewer Conditions

Pressure 29.77 in
Visibility 6.2 miles
Clouds Few 3000 ft
Dew Point 55 °F
Humidity 53%
Rainfall 0.00 in
Snow Depth Not available.
UV 6 out of 12
Pollen Not available.
Air Quality Not available.
Flu Activity Not available.
METAR RJCH 160300Z 28014KT 230V300 9999 FEW030 23/13 Q1008

More Conditions Fewer Conditions

10-Day Weather Forecast

Almanac

Astronomy

Sep. 16, 2014 Rise Set
Actual Time 5:16 AM JST 5:44 PM JST
Civil Twilight 4:48 AM JST 6:11 PM JST
Nautical Twilight 4:15 AM JST 6:44 PM JST
Astronomical Twilight 3:42 AM JST 7:17 PM JST
Moon 10:42 PM JST 12:38 PM JST
Length of Visible Light 13h 23m
Length of Day
12h 27m
Tomorrow will be 2m 43s shorter.
Waning Gibbous, 50% of the Moon is Illuminated
Sep 15
Waning Gibbous
Sep 24
New
Oct 1
First Quarter
Oct 8
Full
Oct 15
Last Quarter

Yesterday's Extremes

Country Highs Country Lows

Community

WunderPhotos

Upload Photos

1,753,689 photos uploaded!

Nearby

Snow Depth

Not available.

Earthquake Activity

City Distance Mag. Time & Date
No recent earthquake activity has been reported nearby.
Minimum magnitude displayed is 2.5.

Coastal Water Temperatures

Place Temperature
No Stations Reporting

Nearby Weather Stations